createdAt,value
2022-12-25T00:04:40.604Z,100874.28
2022-12-25T00:14:43.743Z,100889.06
2022-12-25T00:24:49.895Z,100890.75
2022-12-25T00:34:53.060Z,100907.34
2022-12-25T00:44:57.537Z,100918.50
2022-12-25T00:55:00.711Z,100925.66
2022-12-25T01:05:06.660Z,100925.84
2022-12-25T01:15:11.324Z,100945.50
2022-12-25T01:25:15.837Z,100950.91
2022-12-25T01:35:19.142Z,100953.81
2022-12-25T01:45:45.218Z,100968.19
2022-12-25T01:55:51.208Z,100961.03
2022-12-25T02:05:56.221Z,100970.41
2022-12-25T02:16:04.327Z,100978.16
2022-12-25T02:26:17.162Z,100963.91
2022-12-25T02:36:24.684Z,100982.53
2022-12-25T02:46:46.447Z,100986.13
2022-12-25T02:57:09.651Z,100993.47
2022-12-25T03:07:14.583Z,101002.97
2022-12-25T03:17:19.181Z,101016.91
2022-12-25T03:27:22.306Z,101015.06
2022-12-25T03:37:52.330Z,101042.88
2022-12-25T03:48:22.735Z,101051.69
2022-12-25T03:58:46.510Z,101041.47
2022-12-25T04:09:06.988Z,101046.94
2022-12-25T04:19:35.728Z,101051.22
2022-12-25T04:29:56.294Z,101044.59
2022-12-25T04:40:00.837Z,101056.22
2022-12-25T04:50:04.031Z,101054.91
2022-12-25T05:00:10.143Z,101056.72
2022-12-25T05:10:13.264Z,101074.44
2022-12-25T05:20:17.845Z,101074.97
2022-12-25T05:30:21.053Z,101087.97
2022-12-25T05:40:25.598Z,101100.06
2022-12-25T05:50:28.905Z,101110.12
2022-12-25T06:00:33.616Z,101112.72
2022-12-25T06:10:37.375Z,101135.72
2022-12-25T06:20:42.760Z,101127.03
2022-12-25T06:30:45.842Z,101127.63
2022-12-25T06:40:50.368Z,101135.56
2022-12-25T06:50:53.497Z,101130.44
2022-12-25T07:00:59.362Z,101146.94
2022-12-25T07:11:02.674Z,101154.50
2022-12-25T07:21:13.131Z,101185.19
2022-12-25T07:31:17.735Z,101198.22
2022-12-25T07:41:22.393Z,101203.78
2022-12-25T07:51:25.508Z,101200.19
2022-12-25T08:01:30.589Z,101220.88
2022-12-25T08:11:33.968Z,101226.81
2022-12-25T08:21:38.569Z,101242.09
2022-12-25T08:31:46.506Z,101254.16
2022-12-25T08:41:51.218Z,101243.66
2022-12-25T08:51:54.392Z,101260.22
2022-12-25T09:01:59.020Z,101251.41
2022-12-25T09:12:02.157Z,101261.84
2022-12-25T09:22:06.678Z,101260.81
2022-12-25T09:32:10.169Z,101247.47
2022-12-25T09:42:17.359Z,101259.94
2022-12-25T09:52:23.659Z,101264.50
2022-12-25T10:03:06.662Z,101259.38
2022-12-25T10:13:22.589Z,101251.72
2022-12-25T10:23:28.515Z,101253.59
2022-12-25T10:33:32.998Z,101259.75
2022-12-25T10:43:40.123Z,101250.00
2022-12-25T10:53:44.878Z,101236.41
2022-12-25T11:03:52.674Z,101249.47
2022-12-25T11:13:59.055Z,101242.72
2022-12-25T11:24:03.646Z,101226.16
2022-12-25T11:34:11.744Z,101213.06
2022-12-25T11:44:26.604Z,101206.97
2022-12-25T11:54:34.614Z,101196.47
2022-12-25T12:04:43.098Z,101198.22
2022-12-25T12:14:54.998Z,101190.34
2022-12-25T12:25:02.249Z,101183.34
2022-12-25T12:35:18.413Z,101192.03
2022-12-25T12:45:26.621Z,101189.47
2022-12-25T12:55:33.237Z,101185.78
2022-12-25T13:05:40.408Z,101196.25
2022-12-25T13:15:47.734Z,101197.97
2022-12-25T13:25:53.545Z,101199.75
2022-12-25T13:35:58.061Z,101195.41
2022-12-25T13:46:01.155Z,101193.69
2022-12-25T13:56:06.041Z,101188.50
2022-12-25T14:06:19.095Z,101199.03
2022-12-25T14:16:24.204Z,101196.47
2022-12-25T14:26:29.736Z,101195.63
2022-12-25T14:36:34.750Z,101208.75
2022-12-25T14:46:37.922Z,101227.94
2022-12-25T14:56:48.021Z,101214.75
2022-12-25T15:06:56.588Z,101222.63
2022-12-25T15:17:02.161Z,101219.97
2022-12-25T15:27:05.481Z,101223.41
2022-12-25T15:37:09.963Z,101219.94
2022-12-25T15:47:13.909Z,101237.41
2022-12-25T15:57:20.664Z,101240.03
2022-12-25T16:07:25.062Z,101227.84
2022-12-25T16:17:29.788Z,101235.75
2022-12-25T16:27:32.860Z,101231.41
2022-12-25T16:37:37.526Z,101234.03
2022-12-25T16:47:41.150Z,101227.94
2022-12-25T16:57:47.750Z,101214.81
2022-12-25T17:07:51.153Z,101213.94
2022-12-25T17:17:55.820Z,101214.78
2022-12-25T17:27:59.037Z,101213.91
2022-12-25T17:38:03.494Z,101221.75
2022-12-25T17:48:06.711Z,101200.75
2022-12-25T17:58:11.331Z,101189.34
2022-12-25T18:08:14.662Z,101193.69
2022-12-25T18:18:19.168Z,101194.44
2022-12-25T18:28:22.307Z,101210.09
2022-12-25T18:38:27.070Z,101199.56
2022-12-25T18:48:30.791Z,101200.38
2022-12-25T18:58:35.659Z,101176.56
2022-12-25T19:08:38.780Z,101186.09
2022-12-25T19:18:43.651Z,101173.00
2022-12-25T19:28:46.796Z,101164.28
2022-12-25T19:38:51.342Z,101166.75
2022-12-25T19:48:55.768Z,101178.00
2022-12-25T19:59:00.588Z,101159.69
2022-12-25T20:09:06.255Z,101155.37
2022-12-25T20:19:11.377Z,101131.03
2022-12-25T20:29:14.660Z,101113.56
2022-12-25T20:39:19.163Z,101129.31
2022-12-25T20:49:22.360Z,101130.25
2022-12-25T20:59:29.765Z,101129.16
2022-12-25T21:09:36.640Z,101123.28
2022-12-25T21:19:41.080Z,101128.69
2022-12-25T21:29:44.171Z,101120.66
2022-12-25T21:39:50.146Z,101124.22
2022-12-25T21:50:10.436Z,101136.94
2022-12-25T22:00:15.692Z,101124.13
2022-12-25T22:10:18.775Z,101143.38
2022-12-25T22:20:25.395Z,101142.50
2022-12-25T22:30:30.219Z,101128.53
2022-12-25T22:40:34.659Z,101129.41
2022-12-25T22:50:37.716Z,101131.84
2022-12-25T23:00:46.473Z,101138.91
2022-12-25T23:10:49.773Z,101123.94
2022-12-25T23:21:11.871Z,101123.03
2022-12-25T23:31:14.777Z,101122.34
2022-12-25T23:41:19.309Z,101101.37
2022-12-25T23:51:22.533Z,101110.00
